Airfield :
LOGIN :

Register | Disclaimer

   EN    FR    IT 

 










Legend :    VFR   Marginal VFR   IFR   Intensive IFR   Very Intensive IFR
Visi :
Ceiling :
>= 8 km
>= 3000ft
5 to 8 km
1000 to 3000 ft
1500m to 5 km
500 to 1000 ft
800 to 1500m
200 to 500 ft
< 800m
< 200 ft
Symbols :   Thunderstorms  Fog  Heavy snow  Heavy precipitations  Wind > 20 kt
SIGMETs :     Misc.  Thunderstorms  Icing  Turbulence  Mountain Waves  Volcanic Ashes






- Airport Elevation : 1411 ft
- IATA code : ZHI


LSZG - Grenchen

CURRENT METAR :
  • 162020Z AUTO VRB02KT CAVOK 15/14 Q1013

EXPIRED METARs :
  • 161950Z AUTO VRB02KT 6000 NCD 17/14 Q1012
  • 161920Z AUTO 34002KT CAVOK 18/14 Q1012
  • 161850Z VRB01KT CAVOK 19/15 Q1012
  • 161820Z AUTO VRB01KT CAVOK 21/14 Q1011
  • 161750Z VRB02KT CAVOK 21/14 Q1011
  • 161720Z 22004KT CAVOK 21/13 Q1011
  • 161650Z 23005KT CAVOK 21/12 Q1011
  • 161620Z AUTO 22006KT CAVOK 22/12 Q1011
  • 161550Z 22009KT CAVOK 22/12 Q1011

TAF TAF LSZG
Valid from the 16 at 15:00 until the 17 at 00:00 UTC


161425Z 1615/1624 25010KT 9999 SCT055
PROB40
TEMPO 1616/1620 31015KT
PROB30
TEMPO 1616/1622 SHRA SCT050TCU
ATIS : +41 32 396 96 33



MET'MAP, your aeronautical weather chart ! - Copyright ORBIFLY December 2007 - Disclaimer

ORBIFLY MET'MAP TEAM :

Programming & Development : Alexandra Zaïnal
Original concept : Baudouin d'Aumeries
Technical & hardware support : Manuel Goepfert
Assistance : Marc-Olivier Méhu




SOURCES & CREDITS :

   NOAA